sensor_id;sensor_type;location;lat;lon;timestamp;pressure;altitude;pressure_sealevel;temperature;humidity
12963;BME280;6546;49.882;8.666;2023-03-25T00:01:28;99212.69;;;11.57;70.94
12963;BME280;6546;49.882;8.666;2023-03-25T00:03:57;99219.50;;;11.58;70.64
12963;BME280;6546;49.882;8.666;2023-03-25T00:06:26;99225.34;;;11.39;71.72
12963;BME280;6546;49.882;8.666;2023-03-25T00:08:54;99234.03;;;11.32;72.07
12963;BME280;6546;49.882;8.666;2023-03-25T00:11:22;99231.91;;;11.14;73.34
12963;BME280;6546;49.882;8.666;2023-03-25T00:13:49;99229.06;;;11.09;73.26
12963;BME280;6546;49.882;8.666;2023-03-25T00:16:16;99232.81;;;11.06;73.33
12963;BME280;6546;49.882;8.666;2023-03-25T00:18:43;99224.91;;;10.93;72.86
12963;BME280;6546;49.882;8.666;2023-03-25T00:21:12;99228.34;;;10.79;74.46
12963;BME280;6546;49.882;8.666;2023-03-25T00:23:39;99225.97;;;10.78;74.14
12963;BME280;6546;49.882;8.666;2023-03-25T00:26:08;99232.31;;;10.75;73.92
12963;BME280;6546;49.882;8.666;2023-03-25T00:28:36;99232.50;;;10.74;73.77
12963;BME280;6546;49.882;8.666;2023-03-25T00:31:05;99240.19;;;10.67;74.35
12963;BME280;6546;49.882;8.666;2023-03-25T00:33:32;99235.66;;;10.69;73.57
12963;BME280;6546;49.882;8.666;2023-03-25T00:35:59;99247.16;;;10.67;71.81
12963;BME280;6546;49.882;8.666;2023-03-25T00:38:30;99247.28;;;10.59;73.38
12963;BME280;6546;49.882;8.666;2023-03-25T00:41:12;99246.72;;;10.63;72.21
12963;BME280;6546;49.882;8.666;2023-03-25T00:43:42;99243.25;;;10.56;71.89
12963;BME280;6546;49.882;8.666;2023-03-25T00:46:08;99240.47;;;10.58;71.91
12963;BME280;6546;49.882;8.666;2023-03-25T00:48:35;99250.22;;;10.56;71.28
12963;BME280;6546;49.882;8.666;2023-03-25T00:51:02;99239.88;;;10.56;70.56
12963;BME280;6546;49.882;8.666;2023-03-25T00:53:33;99233.19;;;10.46;71.60
12963;BME280;6546;49.882;8.666;2023-03-25T00:55:59;99229.88;;;10.52;71.23
12963;BME280;6546;49.882;8.666;2023-03-25T00:58:28;99221.59;;;10.42;71.79
12963;BME280;6546;49.882;8.666;2023-03-25T01:00:55;99229.16;;;10.44;71.88
12963;BME280;6546;49.882;8.666;2023-03-25T01:03:22;99228.38;;;10.43;72.72
12963;BME280;6546;49.882;8.666;2023-03-25T01:05:49;99220.63;;;10.43;72.43
12963;BME280;6546;49.882;8.666;2023-03-25T01:08:15;99227.38;;;10.44;72.21
12963;BME280;6546;49.882;8.666;2023-03-25T01:10:43;99213.16;;;10.34;73.34
12963;BME280;6546;49.882;8.666;2023-03-25T01:13:09;99217.03;;;10.44;72.47
12963;BME280;6546;49.882;8.666;2023-03-25T01:15:39;99222.22;;;10.44;72.44
12963;BME280;6546;49.882;8.666;2023-03-25T01:18:06;99216.50;;;10.49;72.37
12963;BME280;6546;49.882;8.666;2023-03-25T01:20:32;99212.66;;;10.45;71.39
12963;BME280;6546;49.882;8.666;2023-03-25T01:22:59;99211.25;;;10.42;71.34
12963;BME280;6546;49.882;8.666;2023-03-25T01:25:25;99218.75;;;10.37;72.04
12963;BME280;6546;49.882;8.666;2023-03-25T01:27:52;99215.44;;;10.43;71.38
12963;BME280;6546;49.882;8.666;2023-03-25T01:30:19;99216.22;;;10.44;71.77
12963;BME280;6546;49.882;8.666;2023-03-25T01:32:47;99204.09;;;10.44;71.08
12963;BME280;6546;49.882;8.666;2023-03-25T01:35:13;99199.94;;;10.43;71.64
12963;BME280;6546;49.882;8.666;2023-03-25T01:37:40;99198.13;;;10.44;70.98
12963;BME280;6546;49.882;8.666;2023-03-25T01:40:15;99195.34;;;10.45;69.96
12963;BME280;6546;49.882;8.666;2023-03-25T01:42:42;99201.72;;;10.43;70.27
12963;BME280;6546;49.882;8.666;2023-03-25T01:45:19;99206.06;;;10.42;69.55
12963;BME280;6546;49.882;8.666;2023-03-25T01:47:49;99193.50;;;10.39;70.30
12963;BME280;6546;49.882;8.666;2023-03-25T01:50:19;99194.47;;;10.38;70.90
12963;BME280;6546;49.882;8.666;2023-03-25T01:52:49;99179.22;;;10.43;71.32
12963;BME280;6546;49.882;8.666;2023-03-25T01:55:17;99180.28;;;10.49;69.53
12963;BME280;6546;49.882;8.666;2023-03-25T01:57:52;99163.50;;;10.45;70.57
12963;BME280;6546;49.882;8.666;2023-03-25T02:00:20;99164.75;;;10.49;70.72
12963;BME280;6546;49.882;8.666;2023-03-25T02:02:48;99169.19;;;10.55;70.35
12963;BME280;6546;49.882;8.666;2023-03-25T02:05:19;99172.75;;;10.54;70.19
12963;BME280;6546;49.882;8.666;2023-03-25T02:07:48;99163.06;;;10.41;71.53
12963;BME280;6546;49.882;8.666;2023-03-25T02:10:15;99158.25;;;10.38;72.35
12963;BME280;6546;49.882;8.666;2023-03-25T02:12:42;99164.31;;;10.45;71.17
12963;BME280;6546;49.882;8.666;2023-03-25T02:15:11;99170.13;;;10.33;72.60
12963;BME280;6546;49.882;8.666;2023-03-25T02:17:51;99167.72;;;10.31;72.57
12963;BME280;6546;49.882;8.666;2023-03-25T02:23:54;99159.34;;;10.29;72.83
12963;BME280;6546;49.882;8.666;2023-03-25T02:27:00;99137.41;;;10.25;72.70
12963;BME280;6546;49.882;8.666;2023-03-25T02:29:48;99150.47;;;10.17;73.02
12963;BME280;6546;49.882;8.666;2023-03-25T02:32:36;99150.84;;;10.14;72.93
12963;BME280;6546;49.882;8.666;2023-03-25T02:35:25;99151.78;;;10.13;73.07
12963;BME280;6546;49.882;8.666;2023-03-25T02:38:03;99141.16;;;10.08;73.65
12963;BME280;6546;49.882;8.666;2023-03-25T02:40:36;99150.66;;;10.01;73.78
12963;BME280;6546;49.882;8.666;2023-03-25T02:43:10;99152.06;;;10.03;74.16
12963;BME280;6546;49.882;8.666;2023-03-25T02:45:43;99165.00;;;10.03;73.83
12963;BME280;6546;49.882;8.666;2023-03-25T02:48:17;99159.75;;;9.97;74.11
12963;BME280;6546;49.882;8.666;2023-03-25T02:50:49;99164.91;;;9.97;73.62
12963;BME280;6546;49.882;8.666;2023-03-25T02:53:24;99176.22;;;9.96;74.10
12963;BME280;6546;49.882;8.666;2023-03-25T02:55:53;99179.16;;;9.93;74.47
12963;BME280;6546;49.882;8.666;2023-03-25T02:58:24;99188.44;;;10.02;72.80
12963;BME280;6546;49.882;8.666;2023-03-25T03:00:52;99184.50;;;10.06;72.75
12963;BME280;6546;49.882;8.666;2023-03-25T03:03:23;99179.69;;;10.03;72.06
12963;BME280;6546;49.882;8.666;2023-03-25T03:05:52;99184.34;;;9.93;71.64
12963;BME280;6546;49.882;8.666;2023-03-25T03:08:46;99178.91;;;9.88;70.91
12963;BME280;6546;49.882;8.666;2023-03-25T03:11:18;99182.22;;;9.82;71.61
12963;BME280;6546;49.882;8.666;2023-03-25T03:13:58;99185.34;;;9.77;71.82
12963;BME280;6546;49.882;8.666;2023-03-25T03:16:31;99179.63;;;9.82;70.56
12963;BME280;6546;49.882;8.666;2023-03-25T03:19:05;99188.03;;;9.69;70.64
12963;BME280;6546;49.882;8.666;2023-03-25T03:21:39;99183.38;;;9.65;71.04
12963;BME280;6546;49.882;8.666;2023-03-25T03:24:12;99174.81;;;9.64;71.28
12963;BME280;6546;49.882;8.666;2023-03-25T03:26:43;99183.53;;;9.63;71.26
12963;BME280;6546;49.882;8.666;2023-03-25T03:29:15;99183.28;;;9.58;70.66
12963;BME280;6546;49.882;8.666;2023-03-25T03:31:44;99175.97;;;9.62;70.91
12963;BME280;6546;49.882;8.666;2023-03-25T03:34:19;99185.84;;;9.58;70.55
12963;BME280;6546;49.882;8.666;2023-03-25T03:36:50;99188.19;;;9.53;71.51
12963;BME280;6546;49.882;8.666;2023-03-25T03:39:22;99185.50;;;9.61;70.14
12963;BME280;6546;49.882;8.666;2023-03-25T03:41:53;99189.88;;;9.61;70.58
12963;BME280;6546;49.882;8.666;2023-03-25T03:44:24;99185.41;;;9.55;70.43
12963;BME280;6546;49.882;8.666;2023-03-25T03:46:58;99181.31;;;9.60;70.58
12963;BME280;6546;49.882;8.666;2023-03-25T03:49:28;99175.63;;;9.65;69.51
12963;BME280;6546;49.882;8.666;2023-03-25T03:52:01;99181.84;;;9.56;70.50
12963;BME280;6546;49.882;8.666;2023-03-25T03:54:38;99187.03;;;9.56;70.88
12963;BME280;6546;49.882;8.666;2023-03-25T03:57:12;99193.00;;;9.56;70.79
12963;BME280;6546;49.882;8.666;2023-03-25T03:59:45;99189.88;;;9.61;69.40
12963;BME280;6546;49.882;8.666;2023-03-25T04:02:19;99182.13;;;9.61;69.96
12963;BME280;6546;49.882;8.666;2023-03-25T04:04:51;99187.47;;;9.59;70.36
12963;BME280;6546;49.882;8.666;2023-03-25T04:07:21;99189.00;;;9.68;69.36
12963;BME280;6546;49.882;8.666;2023-03-25T04:09:56;99194.31;;;9.67;68.94
12963;BME280;6546;49.882;8.666;2023-03-25T04:12:28;99189.50;;;9.64;69.63
12963;BME280;6546;49.882;8.666;2023-03-25T04:14:58;99199.59;;;9.73;69.85
12963;BME280;6546;49.882;8.666;2023-03-25T04:17:26;99184.28;;;9.72;69.17
12963;BME280;6546;49.882;8.666;2023-03-25T04:19:54;99185.59;;;9.68;69.04
12963;BME280;6546;49.882;8.666;2023-03-25T04:22:21;99190.75;;;9.68;69.47
12963;BME280;6546;49.882;8.666;2023-03-25T04:24:49;99198.44;;;9.61;69.61
12963;BME280;6546;49.882;8.666;2023-03-25T04:27:18;99197.91;;;9.66;68.32
12963;BME280;6546;49.882;8.666;2023-03-25T04:29:47;99206.00;;;9.63;69.67
12963;BME280;6546;49.882;8.666;2023-03-25T04:32:17;99211.19;;;9.63;70.39
12963;BME280;6546;49.882;8.666;2023-03-25T04:34:43;99212.34;;;9.75;69.62
12963;BME280;6546;49.882;8.666;2023-03-25T04:37:11;99210.03;;;9.80;68.85
12963;BME280;6546;49.882;8.666;2023-03-25T04:39:45;99214.28;;;9.73;69.00
12963;BME280;6546;49.882;8.666;2023-03-25T04:42:11;99214.63;;;9.70;69.31
12963;BME280;6546;49.882;8.666;2023-03-25T04:44:43;99213.56;;;9.64;69.32
12963;BME280;6546;49.882;8.666;2023-03-25T04:47:11;99224.63;;;9.73;68.79
12963;BME280;6546;49.882;8.666;2023-03-25T04:49:40;99216.25;;;9.71;69.01
12963;BME280;6546;49.882;8.666;2023-03-25T04:52:09;99231.06;;;9.77;68.79
12963;BME280;6546;49.882;8.666;2023-03-25T04:54:36;99233.84;;;9.75;68.92
12963;BME280;6546;49.882;8.666;2023-03-25T04:57:04;99221.00;;;9.82;68.07
12963;BME280;6546;49.882;8.666;2023-03-25T04:59:32;99225.28;;;9.75;68.24
12963;BME280;6546;49.882;8.666;2023-03-25T05:02:01;99231.50;;;9.80;67.79
12963;BME280;6546;49.882;8.666;2023-03-25T05:04:30;99226.84;;;9.76;68.26
12963;BME280;6546;49.882;8.666;2023-03-25T05:07:01;99230.25;;;9.76;68.07
12963;BME280;6546;49.882;8.666;2023-03-25T05:09:28;99225.34;;;9.67;68.16
12963;BME280;6546;49.882;8.666;2023-03-25T05:11:54;99222.41;;;9.70;67.87
12963;BME280;6546;49.882;8.666;2023-03-25T05:14:21;99226.84;;;9.61;68.77
12963;BME280;6546;49.882;8.666;2023-03-25T05:16:48;99235.06;;;9.65;68.89
12963;BME280;6546;49.882;8.666;2023-03-25T05:19:17;99230.50;;;9.67;68.51
12963;BME280;6546;49.882;8.666;2023-03-25T05:21:44;99219.19;;;9.68;67.85
12963;BME280;6546;49.882;8.666;2023-03-25T05:24:12;99226.34;;;9.66;68.77
12963;BME280;6546;49.882;8.666;2023-03-25T05:26:40;99228.22;;;9.72;68.71
12963;BME280;6546;49.882;8.666;2023-03-25T05:29:09;99240.03;;;9.66;68.86
12963;BME280;6546;49.882;8.666;2023-03-25T05:31:38;99231.16;;;9.69;68.63
12963;BME280;6546;49.882;8.666;2023-03-25T05:34:05;99235.69;;;9.67;68.65
12963;BME280;6546;49.882;8.666;2023-03-25T05:36:34;99242.34;;;9.61;69.32
12963;BME280;6546;49.882;8.666;2023-03-25T05:39:01;99248.25;;;9.70;68.49
12963;BME280;6546;49.882;8.666;2023-03-25T05:41:28;99249.84;;;9.71;68.65
12963;BME280;6546;49.882;8.666;2023-03-25T05:43:58;99254.78;;;9.66;68.83
12963;BME280;6546;49.882;8.666;2023-03-25T05:46:26;99252.53;;;9.63;69.70
12963;BME280;6546;49.882;8.666;2023-03-25T05:48:58;99251.09;;;9.60;71.48
12963;BME280;6546;49.882;8.666;2023-03-25T05:51:27;99256.44;;;9.59;72.48
12963;BME280;6546;49.882;8.666;2023-03-25T05:53:58;99261.78;;;9.57;72.45
12963;BME280;6546;49.882;8.666;2023-03-25T05:56:25;99266.84;;;9.50;72.97
12963;BME280;6546;49.882;8.666;2023-03-25T05:58:52;99270.41;;;9.49;73.26
12963;BME280;6546;49.882;8.666;2023-03-25T06:01:19;99266.84;;;9.50;73.74
12963;BME280;6546;49.882;8.666;2023-03-25T06:03:47;99268.81;;;9.48;73.47
12963;BME280;6546;49.882;8.666;2023-03-25T06:06:14;99261.22;;;9.47;74.29
12963;BME280;6546;49.882;8.666;2023-03-25T06:08:42;99266.03;;;9.50;73.44
12963;BME280;6546;49.882;8.666;2023-03-25T06:11:10;99271.19;;;9.50;73.88
12963;BME280;6546;49.882;8.666;2023-03-25T06:13:39;99274.66;;;9.42;73.76
12963;BME280;6546;49.882;8.666;2023-03-25T06:16:07;99281.72;;;9.48;73.99
12963;BME280;6546;49.882;8.666;2023-03-25T06:18:34;99283.03;;;9.44;74.20
12963;BME280;6546;49.882;8.666;2023-03-25T06:21:00;99289.75;;;9.54;74.23
12963;BME280;6546;49.882;8.666;2023-03-25T06:23:27;99278.38;;;9.63;73.78
12963;BME280;6546;49.882;8.666;2023-03-25T06:25:54;99285.31;;;9.62;73.30
12963;BME280;6546;49.882;8.666;2023-03-25T06:28:24;99301.44;;;9.64;73.11
12963;BME280;6546;49.882;8.666;2023-03-25T06:30:50;99291.00;;;9.58;73.21
12963;BME280;6546;49.882;8.666;2023-03-25T06:33:17;99292.28;;;9.62;73.46
12963;BME280;6546;49.882;8.666;2023-03-25T06:35:46;99298.69;;;9.66;72.82
12963;BME280;6546;49.882;8.666;2023-03-25T06:38:18;99296.03;;;9.74;71.88
12963;BME280;6546;49.882;8.666;2023-03-25T06:40:44;99296.66;;;9.76;72.20
12963;BME280;6546;49.882;8.666;2023-03-25T06:43:12;99296.59;;;9.84;71.36
12963;BME280;6546;49.882;8.666;2023-03-25T06:45:40;99292.69;;;9.88;71.47
12963;BME280;6546;49.882;8.666;2023-03-25T06:48:07;99290.91;;;9.88;70.78
12963;BME280;6546;49.882;8.666;2023-03-25T06:50:33;99292.59;;;9.96;71.26
12963;BME280;6546;49.882;8.666;2023-03-25T06:53:00;99295.09;;;10.04;71.25
12963;BME280;6546;49.882;8.666;2023-03-25T06:55:27;99311.72;;;10.24;70.58
12963;BME280;6546;49.882;8.666;2023-03-25T06:57:54;99297.38;;;10.36;69.77
12963;BME280;6546;49.882;8.666;2023-03-25T07:00:21;99297.72;;;10.33;69.46
12963;BME280;6546;49.882;8.666;2023-03-25T07:02:52;99291.31;;;10.29;68.98
12963;BME280;6546;49.882;8.666;2023-03-25T07:05:18;99293.53;;;10.32;69.54
12963;BME280;6546;49.882;8.666;2023-03-25T07:07:45;99291.38;;;10.36;69.08
12963;BME280;6546;49.882;8.666;2023-03-25T07:10:12;99296.91;;;10.33;68.81
12963;BME280;6546;49.882;8.666;2023-03-25T07:12:39;99293.63;;;10.39;69.05
12963;BME280;6546;49.882;8.666;2023-03-25T07:15:06;99294.59;;;10.52;68.59
12963;BME280;6546;49.882;8.666;2023-03-25T07:17:33;99295.03;;;10.56;68.05
12963;BME280;6546;49.882;8.666;2023-03-25T07:20:01;99278.34;;;10.59;68.11
12963;BME280;6546;49.882;8.666;2023-03-25T07:22:28;99289.06;;;10.56;68.11
12963;BME280;6546;49.882;8.666;2023-03-25T07:24:55;99265.84;;;10.47;67.98
12963;BME280;6546;49.882;8.666;2023-03-25T07:27:23;99291.72;;;10.62;68.21
12963;BME280;6546;49.882;8.666;2023-03-25T07:29:50;99274.78;;;10.60;67.58
12963;BME280;6546;49.882;8.666;2023-03-25T07:32:17;99270.38;;;10.60;67.31
12963;BME280;6546;49.882;8.666;2023-03-25T07:34:43;99268.78;;;10.59;67.65
12963;BME280;6546;49.882;8.666;2023-03-25T07:37:11;99268.78;;;10.59;67.54
12963;BME280;6546;49.882;8.666;2023-03-25T07:39:38;99270.19;;;10.62;67.85
12963;BME280;6546;49.882;8.666;2023-03-25T07:42:05;99263.03;;;10.64;67.28
12963;BME280;6546;49.882;8.666;2023-03-25T07:44:31;99262.16;;;10.71;66.96
12963;BME280;6546;49.882;8.666;2023-03-25T07:46:58;99256.59;;;10.74;66.58
12963;BME280;6546;49.882;8.666;2023-03-25T07:49:24;99257.28;;;10.83;66.73
12963;BME280;6546;49.882;8.666;2023-03-25T07:51:51;99257.72;;;10.86;66.09
12963;BME280;6546;49.882;8.666;2023-03-25T07:54:19;99256.44;;;10.97;65.83
12963;BME280;6546;49.882;8.666;2023-03-25T07:56:46;99256.44;;;10.97;65.87
12963;BME280;6546;49.882;8.666;2023-03-25T07:59:13;99267.09;;;11.08;64.52
12963;BME280;6546;49.882;8.666;2023-03-25T08:01:39;99259.81;;;11.19;63.96
12963;BME280;6546;49.882;8.666;2023-03-25T08:04:06;99263.50;;;11.24;63.90
12963;BME280;6546;49.882;8.666;2023-03-25T08:06:32;99265.94;;;11.32;63.68
12963;BME280;6546;49.882;8.666;2023-03-25T08:08:59;99252.88;;;11.40;62.67
12963;BME280;6546;49.882;8.666;2023-03-25T08:11:27;99264.81;;;11.41;62.55
12963;BME280;6546;49.882;8.666;2023-03-25T08:13:53;99264.81;;;11.41;62.97
12963;BME280;6546;49.882;8.666;2023-03-25T08:16:20;99272.47;;;11.49;62.87
12963;BME280;6546;49.882;8.666;2023-03-25T08:18:47;99274.31;;;11.55;62.06
12963;BME280;6546;49.882;8.666;2023-03-25T08:21:17;99269.72;;;11.57;62.04
12963;BME280;6546;49.882;8.666;2023-03-25T08:23:49;99267.13;;;11.57;61.70
12963;BME280;6546;49.882;8.666;2023-03-25T08:26:16;99271.34;;;11.58;62.35
12963;BME280;6546;49.882;8.666;2023-03-25T08:28:45;99274.16;;;11.64;62.26
12963;BME280;6546;49.882;8.666;2023-03-25T08:31:12;99281.56;;;11.67;60.95
12963;BME280;6546;49.882;8.666;2023-03-25T08:33:39;99283.06;;;11.76;59.77
12963;BME280;6546;49.882;8.666;2023-03-25T08:36:09;99277.31;;;11.80;60.50
12963;BME280;6546;49.882;8.666;2023-03-25T08:38:41;99270.72;;;11.78;59.51
12963;BME280;6546;49.882;8.666;2023-03-25T08:41:07;99271.81;;;11.69;59.63
12963;BME280;6546;49.882;8.666;2023-03-25T08:43:34;99263.41;;;11.67;61.05
12963;BME280;6546;49.882;8.666;2023-03-25T08:46:02;99263.41;;;11.67;61.38
12963;BME280;6546;49.882;8.666;2023-03-25T08:48:31;99262.00;;;11.64;60.62
12963;BME280;6546;49.882;8.666;2023-03-25T08:50:58;99255.09;;;11.71;61.09
12963;BME280;6546;49.882;8.666;2023-03-25T08:53:25;99249.97;;;11.78;60.24
12963;BME280;6546;49.882;8.666;2023-03-25T08:55:53;99263.47;;;11.73;61.09
12963;BME280;6546;49.882;8.666;2023-03-25T08:58:20;99261.31;;;11.77;61.27
12963;BME280;6546;49.882;8.666;2023-03-25T09:00:50;99253.53;;;11.77;61.63
12963;BME280;6546;49.882;8.666;2023-03-25T09:03:20;99255.16;;;11.78;61.55
12963;BME280;6546;49.882;8.666;2023-03-25T09:05:47;99254.16;;;11.79;61.18
12963;BME280;6546;49.882;8.666;2023-03-25T09:08:14;99247.59;;;11.83;61.39
12963;BME280;6546;49.882;8.666;2023-03-25T09:10:44;99247.97;;;11.80;61.24
12963;BME280;6546;49.882;8.666;2023-03-25T09:13:14;99246.81;;;11.82;61.64
12963;BME280;6546;49.882;8.666;2023-03-25T09:15:41;99245.59;;;11.78;61.29
12963;BME280;6546;49.882;8.666;2023-03-25T09:18:07;99253.59;;;11.83;61.23
12963;BME280;6546;49.882;8.666;2023-03-25T09:20:36;99246.59;;;11.84;60.29
12963;BME280;6546;49.882;8.666;2023-03-25T09:23:02;99239.53;;;11.71;60.42
12963;BME280;6546;49.882;8.666;2023-03-25T09:25:29;99237.84;;;11.64;61.13
12963;BME280;6546;49.882;8.666;2023-03-25T09:27:55;99237.09;;;11.63;60.79
12963;BME280;6546;49.882;8.666;2023-03-25T09:30:22;99237.84;;;11.64;61.45
12963;BME280;6546;49.882;8.666;2023-03-25T09:32:49;99225.09;;;11.62;61.35
12963;BME280;6546;49.882;8.666;2023-03-25T09:35:15;99228.25;;;11.57;61.76
12963;BME280;6546;49.882;8.666;2023-03-25T09:37:43;99223.88;;;11.58;61.88
12963;BME280;6546;49.882;8.666;2023-03-25T09:40:12;99219.06;;;11.55;62.18
12963;BME280;6546;49.882;8.666;2023-03-25T09:42:54;99208.72;;;11.62;62.06
12963;BME280;6546;49.882;8.666;2023-03-25T09:45:30;99214.31;;;11.58;61.50
12963;BME280;6546;49.882;8.666;2023-03-25T09:48:02;99213.13;;;11.61;61.81
12963;BME280;6546;49.882;8.666;2023-03-25T09:50:33;99221.09;;;11.59;61.66
12963;BME280;6546;49.882;8.666;2023-03-25T09:53:04;99219.09;;;11.62;62.53
12963;BME280;6546;49.882;8.666;2023-03-25T09:55:37;99242.16;;;11.50;63.20
12963;BME280;6546;49.882;8.666;2023-03-25T09:58:22;99247.25;;;11.37;65.68
12963;BME280;6546;49.882;8.666;2023-03-25T10:00:54;99236.41;;;11.27;67.13
12963;BME280;6546;49.882;8.666;2023-03-25T10:03:30;99264.25;;;11.25;68.45
12963;BME280;6546;49.882;8.666;2023-03-25T10:06:12;99258.97;;;11.12;68.35
12963;BME280;6546;49.882;8.666;2023-03-25T10:09:27;99251.63;;;10.94;70.03
12963;BME280;6546;49.882;8.666;2023-03-25T10:12:01;99249.84;;;11.16;70.98
12963;BME280;6546;49.882;8.666;2023-03-25T10:14:38;99256.00;;;11.36;72.10
12963;BME280;6546;49.882;8.666;2023-03-25T10:17:12;99236.13;;;11.43;70.48
12963;BME280;6546;49.882;8.666;2023-03-25T10:19:49;99247.75;;;11.53;68.90
12963;BME280;6546;49.882;8.666;2023-03-25T10:22:25;99317.50;;;11.48;69.10
12963;BME280;6546;49.882;8.666;2023-03-25T10:24:56;99338.41;;;11.40;69.26
12963;BME280;6546;49.882;8.666;2023-03-25T10:27:28;99310.44;;;11.15;67.34
12963;BME280;6546;49.882;8.666;2023-03-25T10:30:01;99304.38;;;10.72;67.02
12963;BME280;6546;49.882;8.666;2023-03-25T10:32:34;99306.53;;;10.53;69.14
12963;BME280;6546;49.882;8.666;2023-03-25T10:35:05;99304.06;;;10.45;69.88
12963;BME280;6546;49.882;8.666;2023-03-25T10:37:37;99306.34;;;10.40;71.28
12963;BME280;6546;49.882;8.666;2023-03-25T10:40:15;99318.41;;;10.48;71.93
12963;BME280;6546;49.882;8.666;2023-03-25T10:42:54;99323.94;;;10.60;72.22
12963;BME280;6546;49.882;8.666;2023-03-25T10:45:23;99319.91;;;10.72;72.43
12963;BME280;6546;49.882;8.666;2023-03-25T10:47:53;99329.53;;;10.78;72.13
12963;BME280;6546;49.882;8.666;2023-03-25T10:50:22;99313.72;;;10.87;72.68
12963;BME280;6546;49.882;8.666;2023-03-25T10:52:50;99302.25;;;10.96;72.29
12963;BME280;6546;49.882;8.666;2023-03-25T10:55:23;99302.69;;;11.00;71.84
12963;BME280;6546;49.882;8.666;2023-03-25T10:57:51;99300.31;;;10.98;72.38
12963;BME280;6546;49.882;8.666;2023-03-25T11:00:19;99297.28;;;11.16;73.41
12963;BME280;6546;49.882;8.666;2023-03-25T11:02:48;99298.66;;;11.33;74.06
12963;BME280;6546;49.882;8.666;2023-03-25T11:05:18;99294.94;;;11.42;73.06
12963;BME280;6546;49.882;8.666;2023-03-25T11:07:48;99302.34;;;11.45;71.91
12963;BME280;6546;49.882;8.666;2023-03-25T11:10:19;99298.81;;;11.53;71.37
12963;BME280;6546;49.882;8.666;2023-03-25T11:12:49;99285.28;;;11.57;70.95
12963;BME280;6546;49.882;8.666;2023-03-25T11:15:18;99285.53;;;11.63;70.05
12963;BME280;6546;49.882;8.666;2023-03-25T11:17:47;99284.16;;;11.67;70.71
12963;BME280;6546;49.882;8.666;2023-03-25T11:20:25;99287.56;;;11.67;70.43
12963;BME280;6546;49.882;8.666;2023-03-25T11:22:53;99288.34;;;11.68;68.77
12963;BME280;6546;49.882;8.666;2023-03-25T11:25:29;99285.09;;;11.80;67.63
12963;BME280;6546;49.882;8.666;2023-03-25T11:28:03;99281.19;;;11.91;67.31
12963;BME280;6546;49.882;8.666;2023-03-25T11:30:31;99301.03;;;12.05;66.69
12963;BME280;6546;49.882;8.666;2023-03-25T11:33:00;99287.72;;;12.15;66.70
12963;BME280;6546;49.882;8.666;2023-03-25T11:35:30;99288.16;;;12.25;66.79
12963;BME280;6546;49.882;8.666;2023-03-25T11:38:00;99290.59;;;12.33;66.44
12963;BME280;6546;49.882;8.666;2023-03-25T11:40:28;99291.63;;;12.38;64.86
12963;BME280;6546;49.882;8.666;2023-03-25T11:42:59;99292.25;;;12.40;66.23
12963;BME280;6546;49.882;8.666;2023-03-25T11:45:32;99289.47;;;12.48;65.50
12963;BME280;6546;49.882;8.666;2023-03-25T11:48:08;99283.50;;;12.54;64.30
12963;BME280;6546;49.882;8.666;2023-03-25T11:50:36;99294.09;;;12.53;64.36
12963;BME280;6546;49.882;8.666;2023-03-25T11:53:03;99289.47;;;12.48;63.51
12963;BME280;6546;49.882;8.666;2023-03-25T11:55:36;99280.00;;;12.34;63.54
12963;BME280;6546;49.882;8.666;2023-03-25T11:58:14;99277.59;;;12.26;64.45
12963;BME280;6546;49.882;8.666;2023-03-25T12:00:46;99280.41;;;12.31;64.48
12963;BME280;6546;49.882;8.666;2023-03-25T12:03:19;99290.41;;;12.34;64.00
12963;BME280;6546;49.882;8.666;2023-03-25T12:05:57;99295.44;;;12.42;63.15
12963;BME280;6546;49.882;8.666;2023-03-25T12:08:28;99290.06;;;12.44;64.35
12963;BME280;6546;49.882;8.666;2023-03-25T12:10:59;99291.22;;;12.41;64.53
12963;BME280;6546;49.882;8.666;2023-03-25T12:14:01;99290.25;;;12.42;64.66
12963;BME280;6546;49.882;8.666;2023-03-25T12:16:42;99281.47;;;12.43;63.54
12963;BME280;6546;49.882;8.666;2023-03-25T12:19:17;99273.44;;;12.38;62.84
12963;BME280;6546;49.882;8.666;2023-03-25T12:21:56;99277.41;;;12.34;62.75
12963;BME280;6546;49.882;8.666;2023-03-25T12:24:36;99260.66;;;12.30;61.66
12963;BME280;6546;49.882;8.666;2023-03-25T12:27:15;99251.84;;;12.31;62.36
12963;BME280;6546;49.882;8.666;2023-03-25T12:29:51;99261.88;;;12.41;62.18
12963;BME280;6546;49.882;8.666;2023-03-25T12:32:30;99260.72;;;12.43;62.71
12963;BME280;6546;49.882;8.666;2023-03-25T12:35:08;99256.72;;;12.47;59.74
12963;BME280;6546;49.882;8.666;2023-03-25T12:37:52;99259.13;;;12.49;61.58
12963;BME280;6546;49.882;8.666;2023-03-25T12:40:36;99256.72;;;12.47;61.18
12963;BME280;6546;49.882;8.666;2023-03-25T12:43:09;99256.72;;;12.47;60.59
12963;BME280;6546;49.882;8.666;2023-03-25T12:45:48;99245.94;;;12.50;61.41
12963;BME280;6546;49.882;8.666;2023-03-25T12:48:29;99245.16;;;12.50;59.96
12963;BME280;6546;49.882;8.666;2023-03-25T12:51:06;99247.53;;;12.51;60.00
12963;BME280;6546;49.882;8.666;2023-03-25T12:53:50;99256.34;;;12.57;60.20
12963;BME280;6546;49.882;8.666;2023-03-25T12:56:31;99253.38;;;12.60;60.53
12963;BME280;6546;49.882;8.666;2023-03-25T12:59:17;99254.41;;;12.66;61.45
12963;BME280;6546;49.882;8.666;2023-03-25T13:01:53;99243.22;;;12.72;59.80
12963;BME280;6546;49.882;8.666;2023-03-25T13:04:34;99239.63;;;12.73;57.25
12963;BME280;6546;49.882;8.666;2023-03-25T13:07:09;99253.63;;;12.72;56.26
12963;BME280;6546;49.882;8.666;2023-03-25T13:09:51;99282.31;;;12.57;56.82
12963;BME280;6546;49.882;8.666;2023-03-25T13:12:27;99303.22;;;12.42;60.17
12963;BME280;6546;49.882;8.666;2023-03-25T13:15:01;99304.31;;;12.20;61.21
12963;BME280;6546;49.882;8.666;2023-03-25T13:17:33;99277.19;;;11.88;63.17
12963;BME280;6546;49.882;8.666;2023-03-25T13:20:04;99282.38;;;11.67;63.53
12963;BME280;6546;49.882;8.666;2023-03-25T13:22:37;99275.03;;;11.71;64.14
12963;BME280;6546;49.882;8.666;2023-03-25T13:25:07;99274.75;;;11.87;64.85
12963;BME280;6546;49.882;8.666;2023-03-25T13:27:41;99265.84;;;11.96;63.77
12963;BME280;6546;49.882;8.666;2023-03-25T13:30:14;99267.41;;;11.90;63.92
12963;BME280;6546;49.882;8.666;2023-03-25T13:32:44;99240.09;;;11.94;61.39
12963;BME280;6546;49.882;8.666;2023-03-25T13:35:18;99252.50;;;12.05;60.80
12963;BME280;6546;49.882;8.666;2023-03-25T13:37:49;99244.94;;;12.04;60.77